LFLB/CMF METAR and TAF weather

Enter ICAO airport designator
Station Type Date Time Source
LFLB METAR 2020/05/29 19:30 UTC NOAA

LFLB 291930Z AUTO 33006KT CAVOK 18/07 Q1017


Station Type Date Time Source
LFLB Decoded METAR 2020/05/29 19:30 UTC NOAA

Chambery / Aix-Les-Bains, France (LFLB) 45-39N 005-53E 239M
May 29, 2020 - 03:30 PM EDT / 2020.05.29 1930 UTC
Wind: from the NNW (330 degrees) at 7 MPH (6 KT):0
Visibility: greater than 7 mile(s):0
Temperature: 64 F (18 C)
Dew Point: 44 F (7 C)
Relative Humidity: 48%
Pressure (altimeter): 30.03 in. Hg (1017 hPa)
ob: LFLB 291930Z AUTO 33006KT CAVOK 18/07 Q1017
cycle: 19

Station Type Date Time Source
LFLB TAF 2020/05/29 19:07 UTC NOAA

TAF LFLB 291900Z 2919/3012 CNL

Example: see airport list